sensor_id;sensor_type;location;lat;lon;timestamp;P1;durP1;ratioP1;P2;durP2;ratioP2
72590;SDS011;60625;51.212;5.952;2022-11-20T00:03:04;17.80;;;8.70;;
72590;SDS011;60625;51.212;5.952;2022-11-20T00:08:04;16.50;;;8.20;;
72590;SDS011;60625;51.212;5.952;2022-11-20T00:13:06;20.00;;;9.90;;
72590;SDS011;60625;51.212;5.952;2022-11-20T00:18:07;21.10;;;9.90;;
72590;SDS011;60625;51.212;5.952;2022-11-20T00:23:07;20.10;;;9.10;;
72590;SDS011;60625;51.212;5.952;2022-11-20T00:28:08;18.50;;;9.60;;
72590;SDS011;60625;51.212;5.952;2022-11-20T00:33:08;19.10;;;9.50;;
72590;SDS011;60625;51.212;5.952;2022-11-20T00:38:09;20.80;;;9.10;;
72590;SDS011;60625;51.212;5.952;2022-11-20T00:43:09;19.90;;;9.30;;
72590;SDS011;60625;51.212;5.952;2022-11-20T00:48:10;17.30;;;9.40;;
72590;SDS011;60625;51.212;5.952;2022-11-20T00:53:10;19.00;;;9.50;;
72590;SDS011;60625;51.212;5.952;2022-11-20T00:58:11;18.70;;;9.20;;
72590;SDS011;60625;51.212;5.952;2022-11-20T01:03:11;17.30;;;8.10;;
72590;SDS011;60625;51.212;5.952;2022-11-20T01:08:12;16.10;;;7.90;;
72590;SDS011;60625;51.212;5.952;2022-11-20T01:13:12;19.90;;;9.70;;
72590;SDS011;60625;51.212;5.952;2022-11-20T01:18:37;18.30;;;8.70;;
72590;SDS011;60625;51.212;5.952;2022-11-20T01:23:41;18.10;;;9.60;;
72590;SDS011;60625;51.212;5.952;2022-11-20T01:28:43;17.90;;;8.40;;
72590;SDS011;60625;51.212;5.952;2022-11-20T01:33:44;18.80;;;9.60;;
72590;SDS011;60625;51.212;5.952;2022-11-20T01:38:46;17.40;;;9.60;;
72590;SDS011;60625;51.212;5.952;2022-11-20T01:43:47;18.70;;;9.10;;
72590;SDS011;60625;51.212;5.952;2022-11-20T01:49:04;17.50;;;9.00;;
72590;SDS011;60625;51.212;5.952;2022-11-20T01:54:18;19.20;;;9.80;;
72590;SDS011;60625;51.212;5.952;2022-11-20T01:59:24;18.80;;;9.60;;
72590;SDS011;60625;51.212;5.952;2022-11-20T02:04:26;18.20;;;8.80;;
72590;SDS011;60625;51.212;5.952;2022-11-20T02:09:28;20.10;;;9.50;;
72590;SDS011;60625;51.212;5.952;2022-11-20T02:14:28;16.40;;;8.50;;
72590;SDS011;60625;51.212;5.952;2022-11-20T02:19:31;20.50;;;9.30;;
72590;SDS011;60625;51.212;5.952;2022-11-20T02:24:32;12.60;;;5.30;;
72590;SDS011;60625;51.212;5.952;2022-11-20T02:29:50;19.40;;;8.80;;
72590;SDS011;60625;51.212;5.952;2022-11-20T02:34:53;16.30;;;7.90;;
72590;SDS011;60625;51.212;5.952;2022-11-20T02:39:54;18.50;;;8.00;;
72590;SDS011;60625;51.212;5.952;2022-11-20T02:44:55;17.40;;;7.20;;
72590;SDS011;60625;51.212;5.952;2022-11-20T02:49:55;17.40;;;8.00;;
72590;SDS011;60625;51.212;5.952;2022-11-20T02:54:56;18.10;;;9.00;;
72590;SDS011;60625;51.212;5.952;2022-11-20T02:59:56;15.20;;;7.00;;
72590;SDS011;60625;51.212;5.952;2022-11-20T03:04:57;21.90;;;8.20;;
72590;SDS011;60625;51.212;5.952;2022-11-20T03:09:58;17.40;;;8.00;;
72590;SDS011;60625;51.212;5.952;2022-11-20T03:14:58;15.70;;;7.80;;
72590;SDS011;60625;51.212;5.952;2022-11-20T03:19:58;16.10;;;8.50;;
72590;SDS011;60625;51.212;5.952;2022-11-20T03:24:59;19.40;;;9.10;;
72590;SDS011;60625;51.212;5.952;2022-11-20T03:29:59;20.00;;;8.00;;
72590;SDS011;60625;51.212;5.952;2022-11-20T03:35:00;18.70;;;8.60;;
72590;SDS011;60625;51.212;5.952;2022-11-20T03:40:01;18.30;;;8.70;;
72590;SDS011;60625;51.212;5.952;2022-11-20T03:45:01;19.10;;;8.40;;
72590;SDS011;60625;51.212;5.952;2022-11-20T03:50:02;18.20;;;8.80;;
72590;SDS011;60625;51.212;5.952;2022-11-20T03:55:04;20.40;;;9.70;;
72590;SDS011;60625;51.212;5.952;2022-11-20T04:00:06;16.90;;;7.60;;
72590;SDS011;60625;51.212;5.952;2022-11-20T04:05:08;20.50;;;9.40;;
72590;SDS011;60625;51.212;5.952;2022-11-20T04:10:08;18.60;;;10.10;;
72590;SDS011;60625;51.212;5.952;2022-11-20T04:15:09;18.40;;;8.80;;
72590;SDS011;60625;51.212;5.952;2022-11-20T04:20:09;20.30;;;8.90;;
72590;SDS011;60625;51.212;5.952;2022-11-20T04:25:10;20.50;;;10.40;;
72590;SDS011;60625;51.212;5.952;2022-11-20T04:30:13;19.90;;;9.60;;
72590;SDS011;60625;51.212;5.952;2022-11-20T04:35:14;18.50;;;8.80;;
72590;SDS011;60625;51.212;5.952;2022-11-20T04:40:14;20.10;;;9.50;;
72590;SDS011;60625;51.212;5.952;2022-11-20T04:45:15;18.90;;;9.60;;
72590;SDS011;60625;51.212;5.952;2022-11-20T04:50:15;22.60;;;9.80;;
72590;SDS011;60625;51.212;5.952;2022-11-20T04:55:16;19.80;;;9.80;;
72590;SDS011;60625;51.212;5.952;2022-11-20T05:00:16;18.10;;;8.90;;
72590;SDS011;60625;51.212;5.952;2022-11-20T05:05:17;19.40;;;9.40;;
72590;SDS011;60625;51.212;5.952;2022-11-20T05:10:17;20.40;;;9.30;;
72590;SDS011;60625;51.212;5.952;2022-11-20T05:15:18;16.00;;;9.10;;
72590;SDS011;60625;51.212;5.952;2022-11-20T05:20:19;19.70;;;9.70;;
72590;SDS011;60625;51.212;5.952;2022-11-20T05:25:20;22.50;;;9.60;;
72590;SDS011;60625;51.212;5.952;2022-11-20T05:30:20;19.40;;;9.50;;
72590;SDS011;60625;51.212;5.952;2022-11-20T05:35:21;18.80;;;9.10;;
72590;SDS011;60625;51.212;5.952;2022-11-20T05:40:21;17.30;;;9.60;;
72590;SDS011;60625;51.212;5.952;2022-11-20T05:45:22;20.40;;;10.40;;
72590;SDS011;60625;51.212;5.952;2022-11-20T05:50:22;17.90;;;9.60;;
72590;SDS011;60625;51.212;5.952;2022-11-20T05:55:23;18.80;;;9.90;;
72590;SDS011;60625;51.212;5.952;2022-11-20T06:00:23;19.80;;;9.50;;
72590;SDS011;60625;51.212;5.952;2022-11-20T06:05:23;23.40;;;10.40;;
72590;SDS011;60625;51.212;5.952;2022-11-20T06:10:24;19.80;;;9.00;;
72590;SDS011;60625;51.212;5.952;2022-11-20T06:15:25;23.00;;;10.10;;
72590;SDS011;60625;51.212;5.952;2022-11-20T06:20:25;20.80;;;10.20;;
72590;SDS011;60625;51.212;5.952;2022-11-20T06:25:26;20.10;;;9.90;;
72590;SDS011;60625;51.212;5.952;2022-11-20T06:30:26;20.70;;;9.70;;
72590;SDS011;60625;51.212;5.952;2022-11-20T06:35:27;18.90;;;9.90;;
72590;SDS011;60625;51.212;5.952;2022-11-20T06:40:28;21.50;;;10.20;;
72590;SDS011;60625;51.212;5.952;2022-11-20T06:45:28;21.10;;;10.30;;
72590;SDS011;60625;51.212;5.952;2022-11-20T06:50:29;17.70;;;9.50;;
72590;SDS011;60625;51.212;5.952;2022-11-20T06:55:30;23.90;;;10.70;;
72590;SDS011;60625;51.212;5.952;2022-11-20T07:00:31;24.80;;;10.20;;
72590;SDS011;60625;51.212;5.952;2022-11-20T07:05:32;21.60;;;10.40;;
72590;SDS011;60625;51.212;5.952;2022-11-20T07:10:34;22.50;;;10.90;;
72590;SDS011;60625;51.212;5.952;2022-11-20T07:15:34;20.20;;;10.30;;
72590;SDS011;60625;51.212;5.952;2022-11-20T07:20:35;25.20;;;11.00;;
72590;SDS011;60625;51.212;5.952;2022-11-20T07:25:35;23.40;;;10.20;;
72590;SDS011;60625;51.212;5.952;2022-11-20T07:30:36;21.10;;;10.20;;
72590;SDS011;60625;51.212;5.952;2022-11-20T07:35:36;22.20;;;10.70;;
72590;SDS011;60625;51.212;5.952;2022-11-20T07:40:37;21.50;;;11.00;;
72590;SDS011;60625;51.212;5.952;2022-11-20T07:45:37;23.60;;;12.10;;
72590;SDS011;60625;51.212;5.952;2022-11-20T07:50:38;22.00;;;11.00;;
72590;SDS011;60625;51.212;5.952;2022-11-20T07:55:38;21.50;;;11.50;;
72590;SDS011;60625;51.212;5.952;2022-11-20T08:00:38;27.40;;;12.10;;
72590;SDS011;60625;51.212;5.952;2022-11-20T08:05:39;23.20;;;11.20;;
72590;SDS011;60625;51.212;5.952;2022-11-20T08:10:46;23.70;;;10.10;;
72590;SDS011;60625;51.212;5.952;2022-11-20T08:15:50;22.30;;;10.70;;
72590;SDS011;60625;51.212;5.952;2022-11-20T08:20:51;20.90;;;10.60;;
72590;SDS011;60625;51.212;5.952;2022-11-20T08:25:51;21.60;;;10.40;;
72590;SDS011;60625;51.212;5.952;2022-11-20T08:30:58;23.00;;;11.40;;
72590;SDS011;60625;51.212;5.952;2022-11-20T08:36:00;25.90;;;11.90;;
72590;SDS011;60625;51.212;5.952;2022-11-20T08:41:03;37.80;;;15.10;;
72590;SDS011;60625;51.212;5.952;2022-11-20T08:46:24;36.00;;;16.30;;
72590;SDS011;60625;51.212;5.952;2022-11-20T08:51:26;38.80;;;16.10;;
72590;SDS011;60625;51.212;5.952;2022-11-20T08:56:27;35.60;;;15.60;;
72590;SDS011;60625;51.212;5.952;2022-11-20T09:01:28;40.10;;;15.90;;
72590;SDS011;60625;51.212;5.952;2022-11-20T09:06:29;46.50;;;18.20;;
72590;SDS011;60625;51.212;5.952;2022-11-20T09:11:30;44.30;;;18.60;;
72590;SDS011;60625;51.212;5.952;2022-11-20T09:16:30;44.80;;;18.70;;
72590;SDS011;60625;51.212;5.952;2022-11-20T09:21:30;41.70;;;17.60;;
72590;SDS011;60625;51.212;5.952;2022-11-20T09:26:31;40.80;;;16.90;;
72590;SDS011;60625;51.212;5.952;2022-11-20T09:31:31;43.00;;;15.70;;
72590;SDS011;60625;51.212;5.952;2022-11-20T09:36:31;40.50;;;16.60;;
72590;SDS011;60625;51.212;5.952;2022-11-20T09:41:43;35.60;;;15.60;;
72590;SDS011;60625;51.212;5.952;2022-11-20T09:47:08;39.00;;;16.40;;
72590;SDS011;60625;51.212;5.952;2022-11-20T09:52:49;38.20;;;14.20;;
72590;SDS011;60625;51.212;5.952;2022-11-20T09:57:55;33.40;;;15.70;;
72590;SDS011;60625;51.212;5.952;2022-11-20T10:03:13;35.60;;;14.70;;
72590;SDS011;60625;51.212;5.952;2022-11-20T10:08:24;34.20;;;13.60;;
72590;SDS011;60625;51.212;5.952;2022-11-20T10:24:52;37.80;;;15.50;;
72590;SDS011;60625;51.212;5.952;2022-11-20T10:30:08;31.80;;;13.00;;
72590;SDS011;60625;51.212;5.952;2022-11-20T10:40:38;28.30;;;12.90;;
72590;SDS011;60625;51.212;5.952;2022-11-20T10:45:51;33.30;;;14.90;;
72590;SDS011;60625;51.212;5.952;2022-11-20T10:56:44;34.90;;;16.20;;
72590;SDS011;60625;51.212;5.952;2022-11-20T11:01:47;38.50;;;16.00;;
72590;SDS011;60625;51.212;5.952;2022-11-20T11:06:48;36.50;;;14.40;;
72590;SDS011;60625;51.212;5.952;2022-11-20T11:11:49;40.10;;;17.10;;
72590;SDS011;60625;51.212;5.952;2022-11-20T11:16:52;36.30;;;16.00;;
72590;SDS011;60625;51.212;5.952;2022-11-20T11:21:55;39.70;;;15.40;;
72590;SDS011;60625;51.212;5.952;2022-11-20T11:27:01;37.20;;;16.10;;
72590;SDS011;60625;51.212;5.952;2022-11-20T11:32:11;36.30;;;15.90;;
72590;SDS011;60625;51.212;5.952;2022-11-20T11:37:18;34.40;;;14.60;;
72590;SDS011;60625;51.212;5.952;2022-11-20T11:42:22;39.00;;;17.00;;
72590;SDS011;60625;51.212;5.952;2022-11-20T11:47:25;36.60;;;15.80;;
72590;SDS011;60625;51.212;5.952;2022-11-20T11:52:48;35.40;;;16.30;;
72590;SDS011;60625;51.212;5.952;2022-11-20T11:58:06;39.00;;;15.00;;
72590;SDS011;60625;51.212;5.952;2022-11-20T12:03:19;37.90;;;15.50;;
72590;SDS011;60625;51.212;5.952;2022-11-20T12:08:30;40.90;;;14.50;;
72590;SDS011;60625;51.212;5.952;2022-11-20T12:18:33;35.30;;;14.80;;
72590;SDS011;60625;51.212;5.952;2022-11-20T12:23:43;35.30;;;14.90;;
72590;SDS011;60625;51.212;5.952;2022-11-20T12:29:14;38.90;;;15.90;;
72590;SDS011;60625;51.212;5.952;2022-11-20T12:34:40;36.40;;;15.50;;
72590;SDS011;60625;51.212;5.952;2022-11-20T12:39:55;37.60;;;14.20;;
72590;SDS011;60625;51.212;5.952;2022-11-20T12:56:50;38.30;;;14.60;;
72590;SDS011;60625;51.212;5.952;2022-11-20T13:02:26;40.90;;;16.90;;
72590;SDS011;60625;51.212;5.952;2022-11-20T13:07:35;39.60;;;16.70;;
72590;SDS011;60625;51.212;5.952;2022-11-20T13:12:43;38.00;;;15.50;;
72590;SDS011;60625;51.212;5.952;2022-11-20T13:17:57;36.10;;;16.00;;
72590;SDS011;60625;51.212;5.952;2022-11-20T13:22:59;40.00;;;16.60;;
72590;SDS011;60625;51.212;5.952;2022-11-20T13:28:03;39.20;;;14.90;;
72590;SDS011;60625;51.212;5.952;2022-11-20T13:33:09;40.50;;;16.90;;
72590;SDS011;60625;51.212;5.952;2022-11-20T13:38:23;43.80;;;16.50;;
72590;SDS011;60625;51.212;5.952;2022-11-20T13:43:37;38.80;;;16.10;;
72590;SDS011;60625;51.212;5.952;2022-11-20T13:48:43;41.60;;;17.10;;
72590;SDS011;60625;51.212;5.952;2022-11-20T14:05:21;40.50;;;17.70;;
72590;SDS011;60625;51.212;5.952;2022-11-20T14:10:26;38.20;;;17.30;;
72590;SDS011;60625;51.212;5.952;2022-11-20T14:15:31;39.50;;;15.90;;
72590;SDS011;60625;51.212;5.952;2022-11-20T14:20:33;39.60;;;15.80;;
72590;SDS011;60625;51.212;5.952;2022-11-20T14:25:34;36.90;;;15.60;;
72590;SDS011;60625;51.212;5.952;2022-11-20T14:30:46;36.00;;;16.30;;
72590;SDS011;60625;51.212;5.952;2022-11-20T14:35:49;38.20;;;16.00;;
72590;SDS011;60625;51.212;5.952;2022-11-20T14:41:07;34.00;;;16.80;;
72590;SDS011;60625;51.212;5.952;2022-11-20T14:46:09;35.60;;;16.50;;
72590;SDS011;60625;51.212;5.952;2022-11-20T14:51:11;36.10;;;16.60;;
72590;SDS011;60625;51.212;5.952;2022-11-20T14:56:24;39.70;;;16.00;;
72590;SDS011;60625;51.212;5.952;2022-11-20T15:01:26;30.80;;;14.20;;
72590;SDS011;60625;51.212;5.952;2022-11-20T15:06:28;35.30;;;14.20;;
72590;SDS011;60625;51.212;5.952;2022-11-20T15:11:33;30.20;;;13.80;;
72590;SDS011;60625;51.212;5.952;2022-11-20T15:16:36;31.90;;;14.30;;
72590;SDS011;60625;51.212;5.952;2022-11-20T15:21:43;28.20;;;12.80;;
72590;SDS011;60625;51.212;5.952;2022-11-20T15:26:44;25.90;;;11.70;;
72590;SDS011;60625;51.212;5.952;2022-11-20T15:31:44;28.30;;;11.60;;
72590;SDS011;60625;51.212;5.952;2022-11-20T15:36:45;25.20;;;10.40;;
72590;SDS011;60625;51.212;5.952;2022-11-20T15:41:46;22.50;;;10.10;;
72590;SDS011;60625;51.212;5.952;2022-11-20T15:46:50;17.30;;;8.00;;
72590;SDS011;60625;51.212;5.952;2022-11-20T15:51:51;16.10;;;6.60;;
72590;SDS011;60625;51.212;5.952;2022-11-20T15:56:53;15.40;;;5.50;;
72590;SDS011;60625;51.212;5.952;2022-11-20T16:01:54;11.90;;;4.00;;
72590;SDS011;60625;51.212;5.952;2022-11-20T16:06:57;7.50;;;2.60;;
72590;SDS011;60625;51.212;5.952;2022-11-20T16:11:58;6.80;;;2.30;;
72590;SDS011;60625;51.212;5.952;2022-11-20T16:16:59;8.20;;;2.30;;
72590;SDS011;60625;51.212;5.952;2022-11-20T16:22:00;5.70;;;2.10;;
72590;SDS011;60625;51.212;5.952;2022-11-20T16:27:03;5.50;;;2.30;;
72590;SDS011;60625;51.212;5.952;2022-11-20T16:32:04;5.70;;;2.60;;
72590;SDS011;60625;51.212;5.952;2022-11-20T16:37:06;7.00;;;3.40;;
72590;SDS011;60625;51.212;5.952;2022-11-20T16:42:08;7.00;;;2.80;;
72590;SDS011;60625;51.212;5.952;2022-11-20T16:47:08;9.60;;;5.30;;
72590;SDS011;60625;51.212;5.952;2022-11-20T16:52:09;9.40;;;4.70;;
72590;SDS011;60625;51.212;5.952;2022-11-20T16:57:09;10.70;;;5.50;;
72590;SDS011;60625;51.212;5.952;2022-11-20T17:02:12;8.90;;;5.10;;
72590;SDS011;60625;51.212;5.952;2022-11-20T17:07:12;6.70;;;3.10;;
72590;SDS011;60625;51.212;5.952;2022-11-20T17:12:12;7.50;;;4.10;;
72590;SDS011;60625;51.212;5.952;2022-11-20T17:17:13;7.00;;;3.20;;
72590;SDS011;60625;51.212;5.952;2022-11-20T17:22:13;7.00;;;3.30;;
72590;SDS011;60625;51.212;5.952;2022-11-20T17:27:14;8.70;;;4.00;;
72590;SDS011;60625;51.212;5.952;2022-11-20T17:32:15;9.30;;;4.80;;
72590;SDS011;60625;51.212;5.952;2022-11-20T17:37:15;12.90;;;5.30;;
72590;SDS011;60625;51.212;5.952;2022-11-20T17:42:17;10.90;;;5.00;;
72590;SDS011;60625;51.212;5.952;2022-11-20T17:47:29;9.90;;;5.00;;
72590;SDS011;60625;51.212;5.952;2022-11-20T17:52:31;10.70;;;5.40;;
72590;SDS011;60625;51.212;5.952;2022-11-20T17:57:32;10.20;;;6.10;;
72590;SDS011;60625;51.212;5.952;2022-11-20T18:02:51;15.90;;;5.50;;
72590;SDS011;60625;51.212;5.952;2022-11-20T18:07:52;9.80;;;4.50;;
72590;SDS011;60625;51.212;5.952;2022-11-20T18:12:53;11.50;;;4.80;;
72590;SDS011;60625;51.212;5.952;2022-11-20T18:17:53;19.00;;;5.20;;
72590;SDS011;60625;51.212;5.952;2022-11-20T18:22:54;12.80;;;4.40;;
72590;SDS011;60625;51.212;5.952;2022-11-20T18:27:54;19.50;;;5.20;;
72590;SDS011;60625;51.212;5.952;2022-11-20T18:32:55;13.30;;;3.20;;
72590;SDS011;60625;51.212;5.952;2022-11-20T18:37:55;13.80;;;3.80;;
72590;SDS011;60625;51.212;5.952;2022-11-20T18:42:56;22.60;;;4.20;;
72590;SDS011;60625;51.212;5.952;2022-11-20T18:48:15;14.00;;;3.50;;
72590;SDS011;60625;51.212;5.952;2022-11-20T18:53:15;16.80;;;4.70;;
72590;SDS011;60625;51.212;5.952;2022-11-20T18:58:16;19.80;;;3.70;;
72590;SDS011;60625;51.212;5.952;2022-11-20T19:03:16;12.20;;;3.10;;
72590;SDS011;60625;51.212;5.952;2022-11-20T19:08:17;11.60;;;3.40;;
72590;SDS011;60625;51.212;5.952;2022-11-20T19:13:17;20.00;;;4.00;;
72590;SDS011;60625;51.212;5.952;2022-11-20T19:18:18;21.10;;;4.70;;
72590;SDS011;60625;51.212;5.952;2022-11-20T19:23:18;15.00;;;3.10;;
72590;SDS011;60625;51.212;5.952;2022-11-20T19:28:21;20.90;;;3.20;;
72590;SDS011;60625;51.212;5.952;2022-11-20T19:33:22;20.80;;;3.30;;
72590;SDS011;60625;51.212;5.952;2022-11-20T19:38:22;14.70;;;3.50;;
72590;SDS011;60625;51.212;5.952;2022-11-20T19:43:22;17.70;;;3.40;;
72590;SDS011;60625;51.212;5.952;2022-11-20T19:48:23;19.20;;;4.10;;
72590;SDS011;60625;51.212;5.952;2022-11-20T19:53:24;13.50;;;3.20;;
72590;SDS011;60625;51.212;5.952;2022-11-20T19:58:28;12.70;;;3.40;;
72590;SDS011;60625;51.212;5.952;2022-11-20T20:03:30;15.30;;;2.90;;
72590;SDS011;60625;51.212;5.952;2022-11-20T20:08:32;17.10;;;3.20;;
72590;SDS011;60625;51.212;5.952;2022-11-20T20:13:32;16.00;;;3.00;;
72590;SDS011;60625;51.212;5.952;2022-11-20T20:18:32;15.90;;;3.00;;
72590;SDS011;60625;51.212;5.952;2022-11-20T20:23:33;18.10;;;3.20;;
72590;SDS011;60625;51.212;5.952;2022-11-20T20:28:35;14.00;;;2.90;;
72590;SDS011;60625;51.212;5.952;2022-11-20T20:33:37;14.10;;;3.10;;
72590;SDS011;60625;51.212;5.952;2022-11-20T20:38:38;20.00;;;3.20;;
72590;SDS011;60625;51.212;5.952;2022-11-20T20:43:39;9.20;;;2.00;;
72590;SDS011;60625;51.212;5.952;2022-11-20T20:48:59;13.20;;;3.30;;
72590;SDS011;60625;51.212;5.952;2022-11-20T20:53:59;18.40;;;3.90;;
72590;SDS011;60625;51.212;5.952;2022-11-20T20:59:00;16.00;;;3.10;;
72590;SDS011;60625;51.212;5.952;2022-11-20T21:04:03;10.50;;;1.80;;
72590;SDS011;60625;51.212;5.952;2022-11-20T21:09:06;15.00;;;3.10;;
72590;SDS011;60625;51.212;5.952;2022-11-20T21:14:07;12.60;;;2.20;;
72590;SDS011;60625;51.212;5.952;2022-11-20T21:19:07;12.00;;;2.50;;
72590;SDS011;60625;51.212;5.952;2022-11-20T21:24:07;9.60;;;1.80;;
72590;SDS011;60625;51.212;5.952;2022-11-20T21:29:08;16.40;;;3.40;;
72590;SDS011;60625;51.212;5.952;2022-11-20T21:34:10;9.90;;;2.50;;
72590;SDS011;60625;51.212;5.952;2022-11-20T21:39:13;17.90;;;3.00;;
72590;SDS011;60625;51.212;5.952;2022-11-20T21:44:14;11.40;;;2.30;;
72590;SDS011;60625;51.212;5.952;2022-11-20T21:49:14;16.90;;;3.00;;
72590;SDS011;60625;51.212;5.952;2022-11-20T21:54:16;9.40;;;2.00;;
72590;SDS011;60625;51.212;5.952;2022-11-20T21:59:17;15.90;;;2.90;;
72590;SDS011;60625;51.212;5.952;2022-11-20T22:04:18;18.80;;;3.30;;
72590;SDS011;60625;51.212;5.952;2022-11-20T22:09:19;12.70;;;2.80;;
72590;SDS011;60625;51.212;5.952;2022-11-20T22:14:19;20.10;;;3.50;;
72590;SDS011;60625;51.212;5.952;2022-11-20T22:19:21;19.20;;;4.40;;
72590;SDS011;60625;51.212;5.952;2022-11-20T22:24:22;15.00;;;2.90;;
72590;SDS011;60625;51.212;5.952;2022-11-20T22:29:23;16.40;;;3.50;;
72590;SDS011;60625;51.212;5.952;2022-11-20T22:34:23;16.10;;;2.70;;
72590;SDS011;60625;51.212;5.952;2022-11-20T22:39:23;13.00;;;3.30;;
72590;SDS011;60625;51.212;5.952;2022-11-20T22:44:24;16.50;;;4.10;;
72590;SDS011;60625;51.212;5.952;2022-11-20T22:49:24;16.60;;;3.30;;
72590;SDS011;60625;51.212;5.952;2022-11-20T22:54:25;17.50;;;3.10;;
72590;SDS011;60625;51.212;5.952;2022-11-20T22:59:25;10.30;;;2.70;;
72590;SDS011;60625;51.212;5.952;2022-11-20T23:04:26;13.50;;;2.50;;
72590;SDS011;60625;51.212;5.952;2022-11-20T23:09:26;16.90;;;2.50;;
72590;SDS011;60625;51.212;5.952;2022-11-20T23:14:26;15.60;;;2.90;;
72590;SDS011;60625;51.212;5.952;2022-11-20T23:19:27;14.20;;;2.50;;
72590;SDS011;60625;51.212;5.952;2022-11-20T23:24:27;17.20;;;2.60;;
72590;SDS011;60625;51.212;5.952;2022-11-20T23:29:28;12.40;;;2.80;;
72590;SDS011;60625;51.212;5.952;2022-11-20T23:34:28;16.00;;;2.70;;
72590;SDS011;60625;51.212;5.952;2022-11-20T23:39:28;17.30;;;2.90;;
72590;SDS011;60625;51.212;5.952;2022-11-20T23:44:29;16.10;;;2.60;;
72590;SDS011;60625;51.212;5.952;2022-11-20T23:49:29;15.10;;;3.50;;
72590;SDS011;60625;51.212;5.952;2022-11-20T23:54:30;16.30;;;3.00;;
72590;SDS011;60625;51.212;5.952;2022-11-20T23:59:31;18.30;;;3.30;;
